createdAt,value
2019-06-10T01:18:01.348Z,0.1
2019-06-10T01:20:01.631Z,0.2
2019-06-10T01:21:01.912Z,0.3
2019-06-10T01:23:01.584Z,0.4
2019-06-10T01:24:01.224Z,0.5
2019-06-10T01:26:01.637Z,0.6
2019-06-10T01:27:01.286Z,0.7
2019-06-10T01:29:01.108Z,0.8
2019-06-10T01:30:01.677Z,0.9
2019-06-10T01:32:01.692Z,1.0
2019-06-10T01:33:01.182Z,1.1
2019-06-10T01:35:01.302Z,1.2
2019-06-10T01:36:00.975Z,1.3
2019-06-10T01:38:01.135Z,1.5
2019-06-10T01:39:01.514Z,1.6
2019-06-10T01:40:00.950Z,1.7
2019-06-10T01:41:01.588Z,1.9
2019-06-10T01:42:00.946Z,2.0
2019-06-10T01:43:01.205Z,2.1
2019-06-10T01:44:01.683Z,2.3
2019-06-10T01:45:01.257Z,2.4
2019-06-10T01:46:01.558Z,2.6
2019-06-10T01:47:01.122Z,2.8
2019-06-10T01:48:01.472Z,2.9
2019-06-10T01:49:00.953Z,3.1
2019-06-10T01:50:00.948Z,3.3
2019-06-10T01:51:01.724Z,3.5
2019-06-10T01:52:01.594Z,3.7
2019-06-10T01:53:01.093Z,3.9
2019-06-10T01:54:01.370Z,4.2
2019-06-10T01:55:01.493Z,4.5
2019-06-10T01:56:01.179Z,4.8
2019-06-10T01:57:01.456Z,5.2
2019-06-10T01:58:01.091Z,5.7
2019-06-10T01:59:01.421Z,6.3
2019-06-10T02:00:08.859Z,7.0
2019-06-10T02:01:01.414Z,7.7
2019-06-10T02:02:01.135Z,8.5
2019-06-10T02:03:03.321Z,9.5
2019-06-10T02:04:00.988Z,10.5
2019-06-10T02:05:01.513Z,11.7
2019-06-10T02:06:01.499Z,12.9
2019-06-10T02:07:01.382Z,14.1
2019-06-10T02:08:01.157Z,15.3
2019-06-10T02:09:01.466Z,16.7
2019-06-10T02:10:01.347Z,18.1
2019-06-10T02:11:01.308Z,19.6
2019-06-10T02:12:02.160Z,21.1
2019-06-10T02:13:01.347Z,22.7
2019-06-10T02:14:00.987Z,24.3
2019-06-10T02:15:01.380Z,26.2
2019-06-10T02:16:01.078Z,28.3
2019-06-10T02:17:01.284Z,30.7
2019-06-10T02:18:01.208Z,33.7
2019-06-10T02:19:04.045Z,37.3
2019-06-10T02:20:01.201Z,41.6
2019-06-10T02:21:01.314Z,46.6
2019-06-10T02:22:01.336Z,52.3
2019-06-10T02:23:01.983Z,58.5
2019-06-10T02:24:01.077Z,65.3
2019-06-10T02:25:01.286Z,72.7
2019-06-10T02:26:01.712Z,81.1
2019-06-10T02:27:01.185Z,90.4
2019-06-10T02:28:01.168Z,100.9
2019-06-10T02:29:00.990Z,112.6
2019-06-10T02:30:01.755Z,125.6
2019-06-10T02:31:02.972Z,139.6
2019-06-10T02:32:04.257Z,154.9
2019-06-10T02:33:02.453Z,170.9
2019-06-10T02:34:02.498Z,187.3
2019-06-10T02:35:10.095Z,204.3
2019-06-10T02:36:03.919Z,222.5
2019-06-10T02:37:04.328Z,242.5
2019-06-10T02:38:03.459Z,265.3
2019-06-10T02:39:04.227Z,291.2
2019-06-10T02:40:04.406Z,320.1
2019-06-10T02:41:04.007Z,351.6
2019-06-10T02:42:04.164Z,384.8
2019-06-10T02:43:03.478Z,418.6
2019-06-10T02:44:04.206Z,451.9
2019-06-10T02:45:03.595Z,484.1
2019-06-10T02:46:03.861Z,514.5
2019-06-10T02:47:03.312Z,542.4
2019-06-10T02:48:03.884Z,567.7
2019-06-10T02:49:17.392Z,590.8
2019-06-10T02:50:04.200Z,611.8
2019-06-10T02:51:03.464Z,631.1
2019-06-10T02:52:03.303Z,648.4
2019-06-10T02:53:03.963Z,663.1
2019-06-10T02:54:04.411Z,674.7
2019-06-10T02:55:04.047Z,682.9
2019-06-10T02:56:03.947Z,687.9
2019-06-10T02:57:04.098Z,691.3
2019-06-10T02:58:03.731Z,695.3
2019-06-10T02:59:03.315Z,702.7
2019-06-10T03:00:04.633Z,716.4
2019-06-10T03:01:04.085Z,739.5
2019-06-10T03:02:03.011Z,773.9
2019-06-10T03:03:03.352Z,819.9
2019-06-10T03:04:04.270Z,878.2
2019-06-10T03:05:04.215Z,946.0
2019-06-10T03:06:05.690Z,1021.1
2019-06-10T03:07:03.352Z,1100.6
2019-06-10T03:08:03.825Z,1178.5
2019-06-10T03:09:03.670Z,1251.4
2019-06-10T03:10:04.336Z,1317.6
2019-06-10T03:11:03.699Z,1376.5
2019-06-10T03:12:04.281Z,1428.1
2019-06-10T03:13:02.373Z,1472.1
2019-06-10T03:14:02.579Z,1508.1
2019-06-10T03:15:02.061Z,1535.7
2019-06-10T03:16:02.761Z,1552.9
2019-06-10T03:17:03.045Z,1558.2
2019-06-10T03:18:02.355Z,1551.0
2019-06-10T03:19:02.896Z,1530.7
2019-06-10T03:20:02.266Z,1501.1
2019-06-10T03:21:02.549Z,1465.3
2019-06-10T03:22:02.704Z,1427.8
2019-06-10T03:23:02.976Z,1395.1
2019-06-10T03:24:02.610Z,1371.0
2019-06-10T03:25:02.893Z,1357.7
2019-06-10T03:26:03.649Z,1355.3
2019-06-10T03:27:02.629Z,1363.1
2019-06-10T03:28:03.040Z,1380.2
2019-06-10T03:29:02.656Z,1406.7
2019-06-10T03:30:03.065Z,1443.2
2019-06-10T03:31:04.880Z,1489.0
2019-06-10T03:32:04.551Z,1543.9
2019-06-10T03:33:04.874Z,1607.7
2019-06-10T03:34:04.772Z,1677.6
2019-06-10T03:35:04.966Z,1749.7
2019-06-10T03:36:03.189Z,1826.2
2019-06-10T03:37:02.432Z,1910.7
2019-06-10T03:38:03.017Z,2004.7
2019-06-10T03:39:02.541Z,2109.9
2019-06-10T03:40:02.456Z,2229.0
2019-06-10T03:41:03.132Z,2360.8
2019-06-10T03:42:02.231Z,2503.9
2019-06-10T03:43:02.588Z,2663.3
2019-06-10T03:44:02.522Z,2842.8
2019-06-10T03:45:03.145Z,3044.8
2019-06-10T03:46:02.949Z,3277.3
2019-06-10T03:47:02.803Z,3545.6
2019-06-10T03:48:06.117Z,3847.3
2019-06-10T03:49:02.961Z,4174.6
2019-06-10T03:50:03.175Z,4515.1
2019-06-10T03:51:03.181Z,4847.1
2019-06-10T03:52:02.408Z,5151.8
2019-06-10T03:53:04.168Z,5432.7
2019-06-10T03:54:02.447Z,5687.6
2019-06-10T03:55:02.976Z,5903.0
2019-06-10T03:56:02.235Z,6074.7
2019-06-10T03:57:02.752Z,6230.5
2019-06-10T03:58:02.197Z,6386.2
2019-06-10T03:59:02.749Z,6531.0
2019-06-10T04:00:02.228Z,6671.3
2019-06-10T04:01:03.030Z,6830.7
2019-06-10T04:02:02.296Z,7004.0
2019-06-10T04:03:02.689Z,7164.9
2019-06-10T04:04:02.310Z,7312.3
2019-06-10T04:05:02.697Z,7448.7
2019-06-10T04:06:02.327Z,7584.8
2019-06-10T04:07:03.746Z,7742.8
2019-06-10T04:08:02.114Z,7931.9
2019-06-10T04:09:02.760Z,8157.9
2019-06-10T04:10:02.220Z,8426.6
2019-06-10T04:11:02.831Z,8752.1
2019-06-10T04:12:02.034Z,9115.2
2019-06-10T04:13:02.572Z,9494.6
2019-06-10T04:14:02.328Z,9906.1
2019-06-10T04:15:03.019Z,10343.7
2019-06-10T04:16:02.290Z,10736.6
2019-06-10T04:17:02.658Z,11056.3
2019-06-10T04:18:03.639Z,11333.2
2019-06-10T04:19:02.488Z,11604.3
2019-06-10T04:20:09.101Z,11878.6
2019-06-10T04:21:02.272Z,12160.7
2019-06-10T04:22:02.559Z,12442.0
2019-06-10T04:23:02.752Z,12715.6
2019-06-10T04:24:02.196Z,12988.1
2019-06-10T04:25:02.961Z,13252.5
2019-06-10T04:26:02.242Z,13489.5
2019-06-10T04:27:02.744Z,13691.9
2019-06-10T04:28:03.143Z,13881.6
2019-06-10T04:29:02.428Z,14064.0
2019-06-10T04:30:03.234Z,14250.4
2019-06-10T04:31:02.475Z,14482.2
2019-06-10T04:32:02.991Z,14767.8
2019-06-10T04:33:02.274Z,15087.5
2019-06-10T04:34:03.121Z,15428.4
2019-06-10T04:35:02.229Z,15830.6
2019-06-10T04:36:02.807Z,16332.1
2019-06-10T04:37:03.073Z,16951.8
2019-06-10T04:38:02.493Z,17670.3
2019-06-10T04:39:03.109Z,18436.2
2019-06-10T04:40:02.785Z,19219.7
2019-06-10T04:41:03.056Z,20034.3
2019-06-10T04:42:02.390Z,20925.9
2019-06-10T04:43:02.976Z,21904.6
2019-06-10T04:44:02.589Z,22956.5
2019-06-10T04:45:03.085Z,24059.3
2019-06-10T04:46:02.290Z,25205.6
2019-06-10T04:47:02.669Z,26408.9
2019-06-10T04:48:03.011Z,27659.2
2019-06-10T04:49:02.662Z,28902.6
2019-06-10T04:50:03.079Z,30064.5
2019-06-10T04:51:02.669Z,31077.9
2019-06-10T04:52:02.999Z,31904.5
2019-06-10T04:53:02.268Z,32510.3
2019-06-10T04:54:02.938Z,32922.1
2019-06-10T04:55:02.491Z,33236.1
2019-06-10T04:56:02.898Z,33547.7
2019-06-10T04:57:02.231Z,33877.3
2019-06-10T04:58:02.501Z,34191.2
2019-06-10T04:59:03.087Z,34428.7
2019-06-10T05:00:02.764Z,34540.0
2019-06-10T05:01:02.998Z,34518.7
2019-06-10T05:02:02.448Z,34369.8
2019-06-10T05:03:02.846Z,34127.2
2019-06-10T05:04:03.106Z,33831.3
2019-06-10T05:05:02.855Z,33518.5
2019-06-10T05:06:02.999Z,33229.8
2019-06-10T05:07:02.107Z,32990.9
2019-06-10T05:08:02.633Z,32840.9
2019-06-10T05:09:01.031Z,32769.9
2019-06-10T05:10:03.181Z,32684.3
2019-06-10T05:11:03.324Z,32464.8
2019-06-10T05:12:02.825Z,32077.0
2019-06-10T05:13:03.092Z,31605.9
2019-06-10T05:14:02.692Z,31211.8
2019-06-10T05:15:03.378Z,31018.3
2019-06-10T05:16:03.480Z,31046.0
2019-06-10T05:17:02.175Z,31265.7
2019-06-10T05:18:03.275Z,31618.3
2019-06-10T05:19:03.605Z,32033.8
2019-06-10T05:20:02.477Z,32465.0
2019-06-10T05:21:02.732Z,32906.0
2019-06-10T05:22:03.070Z,33393.5
2019-06-10T05:23:02.246Z,34006.5
2019-06-10T05:24:02.886Z,34798.8
2019-06-10T05:25:02.430Z,35787.5
2019-06-10T05:26:02.676Z,36893.7
2019-06-10T05:27:02.080Z,37930.2
2019-06-10T05:28:02.868Z,38684.1
2019-06-10T05:29:03.021Z,39008.5
2019-06-10T05:30:02.242Z,38866.9
2019-06-10T05:31:02.740Z,38313.5
2019-06-10T05:32:02.488Z,37452.4
2019-06-10T05:33:02.948Z,36387.4
2019-06-10T05:34:02.336Z,35201.2
2019-06-10T05:35:03.274Z,33942.5
2019-06-10T05:36:02.454Z,32630.9
2019-06-10T05:37:02.695Z,31277.1
2019-06-10T05:38:02.378Z,29865.2
2019-06-10T05:39:02.707Z,28376.7
2019-06-10T05:40:02.171Z,26845.3
2019-06-10T05:41:02.814Z,25381.9
2019-06-10T05:42:03.254Z,24163.3
2019-06-10T05:43:02.375Z,23324.1
2019-06-10T05:44:02.654Z,22887.1
2019-06-10T05:45:03.084Z,22808.3
2019-06-10T05:46:02.815Z,23023.9
2019-06-10T05:47:03.494Z,23459.3
2019-06-10T05:48:02.739Z,24053.5
2019-06-10T05:49:03.037Z,24777.9
2019-06-10T05:50:03.179Z,25620.3
2019-06-10T05:51:03.716Z,26556.5
2019-06-10T05:52:01.991Z,27524.3
2019-06-10T05:53:02.430Z,28451.9
2019-06-10T05:54:02.139Z,29334.7
2019-06-10T05:55:02.848Z,30202.9
2019-06-10T05:56:02.167Z,31094.4
2019-06-10T05:57:02.612Z,32000.7
2019-06-10T05:58:02.521Z,32890.5
2019-06-10T05:59:03.822Z,33735.5
2019-06-10T06:00:07.074Z,34472.7
2019-06-10T06:01:02.660Z,35063.5
2019-06-10T06:02:02.254Z,35506.1
2019-06-10T06:03:02.729Z,35850.5
2019-06-10T06:04:03.208Z,36169.0
2019-06-10T06:05:02.529Z,36530.1
2019-06-10T06:06:03.094Z,36965.7
2019-06-10T06:07:02.339Z,37476.5
2019-06-10T06:08:05.458Z,38047.5
2019-06-10T06:09:02.197Z,38644.0
2019-06-10T06:10:02.385Z,39209.4
2019-06-10T06:11:03.169Z,39662.0
2019-06-10T06:12:02.470Z,39939.7
2019-06-10T06:13:03.047Z,40030.0
2019-06-10T06:14:02.651Z,39954.8
2019-06-10T06:15:02.313Z,39759.5
2019-06-10T06:16:03.242Z,39497.4
2019-06-10T06:17:02.188Z,39205.2
2019-06-10T06:18:09.339Z,38865.5
2019-06-10T06:19:03.057Z,38475.8
2019-06-10T06:20:02.687Z,37991.9
2019-06-10T06:21:19.294Z,37385.5
2019-06-10T06:22:02.206Z,36621.7
2019-06-10T06:23:02.736Z,35694.6
2019-06-10T06:24:03.822Z,34628.5
2019-06-10T06:25:03.603Z,33467.3
2019-06-10T06:26:03.594Z,32268.8
2019-06-10T06:27:02.469Z,31103.3
2019-06-10T06:28:02.952Z,30028.1
2019-06-10T06:29:02.207Z,29107.4
2019-06-10T06:30:04.108Z,28403.8
2019-06-10T06:31:03.202Z,27925.0
2019-06-10T06:32:02.658Z,27666.1
2019-06-10T06:33:02.890Z,27582.9
2019-06-10T06:34:02.981Z,27609.0
2019-06-10T06:35:02.067Z,27728.6
2019-06-10T06:36:03.377Z,27929.3
2019-06-10T06:37:02.189Z,28234.1
2019-06-10T06:38:02.566Z,28664.7
2019-06-10T06:39:02.292Z,29196.6
2019-06-10T06:40:02.762Z,29807.1
2019-06-10T06:41:03.144Z,30474.8
2019-06-10T06:42:02.217Z,31187.7
2019-06-10T06:43:02.716Z,31906.7
2019-06-10T06:44:02.272Z,32579.6
2019-06-10T06:45:02.969Z,33180.9
2019-06-10T06:46:02.403Z,33694.3
2019-06-10T06:47:02.660Z,34094.7
2019-06-10T06:48:02.972Z,34395.6
2019-06-10T06:49:02.077Z,34615.4
2019-06-10T06:50:02.677Z,34765.3
2019-06-10T06:51:05.370Z,34869.3
2019-06-10T06:52:02.829Z,34950.0
2019-06-10T06:53:19.273Z,35011.9
2019-06-10T06:54:03.185Z,35063.1
2019-06-10T06:55:02.445Z,35103.8
2019-06-10T06:56:03.500Z,35152.3
2019-06-10T06:57:03.435Z,35188.7
2019-06-10T06:58:02.881Z,35231.9
2019-06-10T06:59:02.492Z,35292.1
2019-06-10T07:00:15.400Z,35389.9
2019-06-10T07:01:09.721Z,35569.5
2019-06-10T07:02:02.715Z,35821.3
2019-06-10T07:03:03.071Z,36152.4
2019-06-10T07:04:02.582Z,36517.6
2019-06-10T07:05:03.123Z,36888.9
2019-06-10T07:06:02.606Z,37251.7
2019-06-10T07:07:02.630Z,37661.5
2019-06-10T07:08:02.326Z,38197.8
2019-06-10T07:09:05.213Z,38924.1
2019-06-10T07:10:03.191Z,39807.5
2019-06-10T07:11:02.789Z,40769.1
2019-06-10T07:12:02.492Z,41717.7
2019-06-10T07:13:02.821Z,42556.3
2019-06-10T07:14:03.667Z,43240.0
2019-06-10T07:15:01.101Z,43702.2
2019-06-10T07:16:02.909Z,43865.3
2019-06-10T07:17:03.889Z,43753.3
2019-06-10T07:18:02.306Z,43407.7
2019-06-10T07:19:02.577Z,42922.5
2019-06-10T07:20:03.136Z,42379.9
2019-06-10T07:21:02.649Z,41813.7
2019-06-10T07:22:09.346Z,41169.0
2019-06-10T07:23:02.656Z,40364.1
2019-06-10T07:24:03.069Z,39358.9
2019-06-10T07:25:05.822Z,38193.9
2019-06-10T07:26:02.246Z,36956.5
2019-06-10T07:27:02.716Z,35770.0
2019-06-10T07:28:02.013Z,34753.5
2019-06-10T07:29:02.869Z,33953.3
2019-06-10T07:30:11.217Z,33397.8
2019-06-10T07:31:03.207Z,33087.4
2019-06-10T07:32:03.326Z,32982.6
2019-06-10T07:33:02.933Z,33037.5
2019-06-10T07:34:02.561Z,33195.9
2019-06-10T07:35:02.885Z,33402.3
2019-06-10T07:36:03.126Z,33648.4
2019-06-10T07:37:02.561Z,33953.6
2019-06-10T07:38:02.922Z,34349.7
2019-06-10T07:39:03.463Z,34821.5
2019-06-10T07:40:03.013Z,35337.0
2019-06-10T07:41:02.541Z,35830.5
2019-06-10T07:42:03.099Z,36282.3
2019-06-10T07:43:02.322Z,36660.4
2019-06-10T07:44:03.047Z,36985.5
2019-06-10T07:45:02.498Z,37265.4
2019-06-10T07:46:03.294Z,37436.3
2019-06-10T07:47:02.584Z,37471.5
2019-06-10T07:48:02.787Z,37379.4
2019-06-10T07:49:03.294Z,37212.3
2019-06-10T07:50:02.988Z,37053.3
2019-06-10T07:51:02.744Z,36977.1
2019-06-10T07:52:12.840Z,37049.3
2019-06-10T07:53:02.235Z,37297.0
2019-06-10T07:54:03.142Z,37680.5
2019-06-10T07:55:02.467Z,38125.2
2019-06-10T07:56:03.157Z,38607.1
2019-06-10T07:57:02.370Z,39091.8
2019-06-10T07:58:02.487Z,39642.0
2019-06-10T07:59:03.841Z,40352.9
2019-06-10T08:00:03.081Z,41340.7
2019-06-10T08:01:02.583Z,42727.9
2019-06-10T08:02:03.017Z,44493.9
2019-06-10T08:03:02.426Z,46462.5
2019-06-10T08:04:03.056Z,48405.5
2019-06-10T08:05:03.504Z,50207.0
2019-06-10T08:06:03.247Z,51867.5
2019-06-10T08:07:03.274Z,53456.9
2019-06-10T08:08:02.786Z,55037.6
2019-06-10T08:09:02.250Z,56469.9
2019-06-10T08:10:02.847Z,57800.4
2019-06-10T08:11:03.288Z,59089.1
2019-06-10T08:12:05.318Z,60217.7
2019-06-10T08:13:02.921Z,61074.5
2019-06-10T08:14:04.522Z,61668.6
2019-06-10T08:15:02.674Z,62062.2
2019-06-10T08:16:02.699Z,62364.0
2019-06-10T08:17:03.073Z,62568.2
2019-06-10T08:18:04.081Z,62701.1
2019-06-10T08:19:21.739Z,62941.0
2019-06-10T08:20:02.455Z,63314.5
2019-06-10T08:21:03.085Z,63720.7
2019-06-10T08:22:02.833Z,63850.3
2019-06-10T08:23:02.207Z,63618.7
2019-06-10T08:24:03.269Z,63283.5
2019-06-10T08:25:04.761Z,62924.7
2019-06-10T08:26:03.365Z,62553.2
2019-06-10T08:27:02.651Z,62363.3
2019-06-10T08:28:02.956Z,62455.9
2019-06-10T08:29:04.126Z,62799.4
2019-06-10T08:30:15.054Z,63170.9
2019-06-10T08:31:03.358Z,63319.3
2019-06-10T08:37:04.141Z,63470.2
2019-06-10T08:38:02.433Z,63747.3
2019-06-10T08:39:03.164Z,64082.5
2019-06-10T08:40:03.604Z,64441.4
2019-06-10T08:41:03.048Z,64812.9
2019-06-10T08:42:03.109Z,65153.7
2019-06-10T08:43:04.011Z,65423.7
2019-06-10T08:44:02.242Z,65535.0
2019-06-10T08:45:03.426Z,65311.6
2019-06-10T08:46:02.506Z,64881.0
2019-06-10T08:47:03.056Z,64206.8
2019-06-10T08:48:02.664Z,63340.3
2019-06-10T08:49:03.116Z,62360.2
2019-06-10T08:50:02.572Z,61413.9
2019-06-10T08:51:03.252Z,60643.2
2019-06-10T08:52:02.658Z,60245.9
2019-06-10T09:00:06.970Z,60469.3
2019-06-10T09:01:02.270Z,60801.9
2019-06-10T09:02:02.884Z,61148.9
2019-06-10T09:03:03.749Z,61519.3
2019-06-10T09:04:03.056Z,61839.3
2019-06-10T09:05:03.602Z,61994.1
2019-06-10T09:06:02.630Z,61906.1
2019-06-10T09:07:04.132Z,61431.6
2019-06-10T09:08:02.780Z,60586.2
2019-06-10T09:09:03.110Z,59811.3
2019-06-10T09:10:02.924Z,59113.8
2019-06-10T09:11:02.283Z,58462.5
2019-06-10T09:12:03.422Z,57796.1
2019-06-10T09:13:02.727Z,57032.0
2019-06-10T09:14:02.515Z,56117.0
2019-06-10T09:15:03.662Z,55020.9
2019-06-10T09:16:12.476Z,53886.1
2019-06-10T09:17:03.361Z,52944.2
2019-06-10T09:18:06.086Z,52230.9
2019-06-10T09:19:02.216Z,51765.5
2019-06-10T09:20:02.886Z,51444.4
2019-06-10T09:21:02.281Z,51099.7
2019-06-10T09:22:03.205Z,50631.8
2019-06-10T09:23:17.221Z,50007.1
2019-06-10T09:24:03.704Z,49155.9
2019-06-10T09:25:02.872Z,48107.4
2019-06-10T09:26:03.481Z,46972.9
2019-06-10T09:27:06.090Z,45859.9
2019-06-10T09:28:06.092Z,44845.0
2019-06-10T09:29:02.835Z,43975.8
2019-06-10T09:30:02.945Z,43316.7
2019-06-10T09:31:03.941Z,42872.6
2019-06-10T09:32:02.122Z,42574.1
2019-06-10T09:33:04.031Z,42334.2
2019-06-10T09:34:03.360Z,42115.0
2019-06-10T09:35:03.361Z,41936.7
2019-06-10T09:36:03.213Z,41850.5
2019-06-10T09:37:03.501Z,41867.4
2019-06-10T09:38:03.500Z,41974.5
2019-06-10T09:39:03.891Z,42191.1
2019-06-10T09:40:03.338Z,42460.3
2019-06-10T09:41:04.998Z,42670.8
2019-06-10T09:42:05.443Z,42745.5
2019-06-10T09:43:02.444Z,42667.5
2019-06-10T09:44:03.183Z,42436.3
2019-06-10T09:45:02.564Z,42056.3
2019-06-10T09:46:03.464Z,41524.4
2019-06-10T09:47:03.333Z,40855.7
2019-06-10T09:48:03.915Z,40080.2
2019-06-10T09:49:06.095Z,39223.6
2019-06-10T09:50:03.167Z,38334.1
2019-06-10T09:51:02.434Z,37445.9
2019-06-10T09:52:03.291Z,36592.9
2019-06-10T09:53:03.362Z,35800.9
2019-06-10T09:54:06.792Z,35060.0
2019-06-10T09:55:02.656Z,34375.1
2019-06-10T09:56:03.392Z,33766.7
2019-06-10T09:58:03.125Z,33266.1
2019-06-10T09:59:03.102Z,32938.5
2019-06-10T10:00:03.383Z,32778.5
2019-06-10T10:01:03.209Z,32741.6
2019-06-10T10:02:03.545Z,32804.4
2019-06-10T10:03:03.343Z,32956.6
2019-06-10T10:04:06.109Z,33199.9
2019-06-10T10:05:01.229Z,33603.1
2019-06-10T10:06:11.323Z,34193.6
2019-06-10T10:07:03.029Z,34978.1
2019-06-10T10:08:01.089Z,35902.9
2019-06-10T10:09:06.091Z,36865.7
2019-06-10T10:10:04.162Z,37806.3
2019-06-10T10:11:01.086Z,38735.3
2019-06-10T10:12:02.987Z,39737.0
2019-06-10T10:13:02.640Z,40898.4
2019-06-10T10:14:09.339Z,42180.0
2019-06-10T10:15:21.545Z,43531.9
2019-06-10T10:16:02.530Z,44970.2
2019-06-10T10:17:04.435Z,46550.9
2019-06-10T10:18:06.090Z,48207.3
2019-06-10T10:19:05.040Z,49784.4
2019-06-10T10:20:03.162Z,51056.7
2019-06-10T10:21:03.688Z,52123.8
2019-06-10T10:22:02.958Z,53308.4
2019-06-10T10:23:02.637Z,54559.4
2019-06-10T10:24:07.636Z,55751.6
2019-06-10T10:25:02.956Z,56961.4
2019-06-10T10:26:03.341Z,58194.1
2019-06-10T10:27:02.525Z,59376.1
2019-06-10T10:28:06.166Z,60419.9
2019-06-10T10:29:02.753Z,61323.1
2019-06-10T10:30:03.337Z,62146.5
2019-06-10T10:31:03.534Z,62880.3
2019-06-10T10:32:02.561Z,63445.7
2019-06-10T10:33:02.643Z,63873.3
2019-06-10T10:34:02.683Z,64277.8
2019-06-10T10:35:02.999Z,64803.6
2019-06-10T10:36:02.745Z,65326.3
2019-06-10T10:37:02.853Z,65535.0
2019-06-10T10:45:02.708Z,65535.0
2019-06-10T11:00:03.078Z,65535.0
2019-06-10T11:15:04.568Z,65535.0
2019-06-10T11:30:02.406Z,65535.0
2019-06-10T11:45:02.883Z,65535.0
2019-06-10T12:00:08.843Z,65535.0
2019-06-10T12:15:01.548Z,65535.0
2019-06-10T12:30:04.775Z,65535.0
2019-06-10T12:45:05.101Z,65535.0
2019-06-10T13:00:09.639Z,65535.0
2019-06-10T13:14:03.932Z,65322.0
2019-06-10T13:15:04.725Z,64871.4
2019-06-10T13:16:04.120Z,64220.2
2019-06-10T13:17:02.895Z,63391.0
2019-06-10T13:18:03.864Z,62363.5
2019-06-10T13:20:04.364Z,61234.5
2019-06-10T13:21:06.896Z,60089.2
2019-06-10T13:22:02.102Z,58904.5
2019-06-10T13:23:06.840Z,57687.5
2019-06-10T13:24:03.475Z,56397.0
2019-06-10T13:25:01.259Z,55016.9
2019-06-10T13:26:04.162Z,53555.3
2019-06-10T13:27:03.421Z,52060.0
2019-06-10T13:28:04.033Z,50602.5
2019-06-10T13:29:04.944Z,49229.9
2019-06-10T13:30:02.551Z,48171.7
2019-06-10T13:31:04.287Z,47494.5
2019-06-10T13:32:03.167Z,47152.1
2019-06-10T13:33:04.177Z,47049.9
2019-06-10T13:34:05.382Z,47257.5
2019-06-10T13:35:01.225Z,47709.7
2019-06-10T13:36:01.091Z,48257.2
2019-06-10T13:37:03.428Z,48839.5
2019-06-10T13:38:03.666Z,49345.4
2019-06-10T13:39:03.985Z,49759.4
2019-06-10T13:40:03.796Z,50152.1
2019-06-10T13:41:01.749Z,50576.1
2019-06-10T13:42:04.773Z,50981.6
2019-06-10T13:43:01.784Z,51331.8
2019-06-10T13:44:02.079Z,51568.1
2019-06-10T13:45:04.826Z,51625.5
2019-06-10T13:46:03.055Z,51449.6
2019-06-10T13:47:02.074Z,51047.3
2019-06-10T13:48:04.466Z,50399.1
2019-06-10T13:49:03.830Z,49380.0
2019-06-10T13:50:04.629Z,48027.7
2019-06-10T13:51:04.653Z,46477.5
2019-06-10T13:52:05.043Z,44932.9
2019-06-10T13:53:03.288Z,43583.9
2019-06-10T13:54:03.320Z,42478.3
2019-06-10T13:55:03.437Z,41504.9
2019-06-10T13:56:18.786Z,40663.5
2019-06-10T13:57:03.655Z,39836.2
2019-06-10T13:58:03.866Z,38964.9
2019-06-10T13:59:03.301Z,38084.0
2019-06-10T14:00:04.187Z,37337.6
2019-06-10T14:01:03.993Z,36657.1
2019-06-10T14:02:03.697Z,35983.9
2019-06-10T14:03:04.949Z,35539.5
2019-06-10T14:04:04.378Z,35456.9
2019-06-10T14:05:03.430Z,35622.3
2019-06-10T14:06:06.918Z,35968.8
2019-06-10T14:07:02.314Z,36411.7
2019-06-10T14:08:04.435Z,36832.0
2019-06-10T14:09:06.447Z,37194.7
2019-06-10T14:10:03.934Z,37503.1
2019-06-10T14:11:06.712Z,37720.7
2019-06-10T14:12:01.978Z,37971.3
2019-06-10T14:13:03.498Z,38252.1
2019-06-10T14:14:01.390Z,38562.3
2019-06-10T14:15:03.849Z,38859.3
2019-06-10T14:16:01.362Z,39258.5
2019-06-10T14:17:01.282Z,39826.9
2019-06-10T14:18:03.480Z,40407.7
2019-06-10T14:19:01.915Z,40872.7
2019-06-10T14:20:01.733Z,41314.1
2019-06-10T14:22:02.379Z,41789.2
2019-06-10T14:23:02.239Z,42249.6
2019-06-10T14:24:02.084Z,42680.1
2019-06-10T14:25:03.203Z,43026.7
2019-06-10T14:26:03.027Z,43236.0
2019-06-10T14:27:03.243Z,43209.8
2019-06-10T14:28:04.128Z,43390.3
2019-06-10T14:29:02.831Z,43988.3
2019-06-10T14:30:02.690Z,44756.1
2019-06-10T14:31:03.419Z,45612.5
2019-06-10T14:32:02.556Z,46591.5
2019-06-10T14:33:02.734Z,47607.2
2019-06-10T14:34:03.726Z,48661.5
2019-06-10T14:35:01.082Z,49732.1
2019-06-10T14:36:03.576Z,50694.3
2019-06-10T14:37:01.081Z,51609.3
2019-06-10T14:38:03.184Z,52631.7
2019-06-10T14:39:01.087Z,53840.9
2019-06-10T14:40:03.481Z,55113.7
2019-06-10T14:41:03.274Z,56556.9
2019-06-10T14:42:03.284Z,58244.3
2019-06-10T14:43:01.101Z,59730.3
2019-06-10T14:44:01.081Z,60830.2
2019-06-10T14:45:01.084Z,61769.3
2019-06-10T14:46:01.289Z,62576.3
2019-06-10T14:47:02.887Z,63182.2
2019-06-10T14:48:02.842Z,63667.1
2019-06-10T14:49:02.301Z,64056.2
2019-06-10T14:50:03.250Z,64442.1
2019-06-10T14:51:03.273Z,64902.3
2019-06-10T14:52:02.717Z,65313.5
2019-06-10T14:53:02.278Z,65535.0
2019-06-10T15:00:02.879Z,65535.0
2019-06-10T15:15:01.225Z,65535.0
2019-06-10T15:30:07.428Z,65535.0
2019-06-10T15:45:02.430Z,65535.0
2019-06-10T16:00:02.946Z,65535.0
2019-06-10T16:15:02.598Z,65535.0
2019-06-10T16:30:02.736Z,65535.0
2019-06-10T16:41:03.442Z,65344.5
2019-06-10T16:42:02.956Z,64963.2
2019-06-10T16:43:01.087Z,64265.7
2019-06-10T16:44:02.949Z,63545.4
2019-06-10T16:45:02.481Z,62933.5
2019-06-10T16:46:03.224Z,62343.5
2019-06-10T16:47:03.181Z,61590.1
2019-06-10T16:48:02.365Z,60481.3
2019-06-10T16:49:03.196Z,59123.2
2019-06-10T16:50:03.160Z,57756.7
2019-06-10T16:51:03.184Z,56522.9
2019-06-10T16:52:02.835Z,55286.0
2019-06-10T16:53:02.977Z,53865.7
2019-06-10T16:54:02.378Z,52350.5
2019-06-10T16:55:02.206Z,50543.3
2019-06-10T16:56:03.268Z,48692.9
2019-06-10T16:57:03.724Z,46934.9
2019-06-10T16:58:02.727Z,45351.7
2019-06-10T16:59:02.931Z,43745.6
2019-06-10T17:00:04.065Z,42075.1
2019-06-10T17:01:03.338Z,40331.2
2019-06-10T17:02:02.245Z,38686.5
2019-06-10T17:03:01.098Z,37341.0
2019-06-10T17:04:01.128Z,36208.7
2019-06-10T17:05:03.145Z,35046.9
2019-06-10T17:06:02.502Z,33803.0
2019-06-10T17:07:02.107Z,32753.3
2019-06-10T17:08:03.254Z,32086.3
2019-06-10T17:09:02.799Z,31749.1
2019-06-10T17:10:02.286Z,31787.3
2019-06-10T17:11:03.268Z,32152.0
2019-06-10T17:12:02.203Z,32794.5
2019-06-10T17:13:03.089Z,33591.9
2019-06-10T17:14:03.064Z,34346.5
2019-06-10T17:15:03.269Z,34788.0
2019-06-10T17:17:03.327Z,34817.8
2019-06-10T17:18:02.794Z,34824.8
2019-06-10T17:19:02.393Z,34796.4
2019-06-10T17:20:03.713Z,34823.8
2019-06-10T17:21:02.918Z,34958.1
2019-06-10T17:22:01.087Z,35106.3
2019-06-10T17:23:03.182Z,35057.7
2019-06-10T17:24:03.408Z,34790.1
2019-06-10T17:25:01.088Z,34194.1
2019-06-10T17:26:02.289Z,33401.4
2019-06-10T17:27:02.608Z,32445.9
2019-06-10T17:28:12.486Z,31268.9
2019-06-10T17:29:02.805Z,30039.8
2019-06-10T17:30:02.815Z,28927.7
2019-06-10T17:31:03.712Z,28140.7
2019-06-10T17:32:02.738Z,27842.2
2019-06-10T17:33:02.291Z,27676.5
2019-06-10T17:34:02.657Z,27650.6
2019-06-10T17:35:02.279Z,27686.5
2019-06-10T17:36:03.305Z,27706.3
2019-06-10T17:37:03.079Z,27717.7
2019-06-10T17:38:02.716Z,27725.9
2019-06-10T17:39:03.035Z,27706.4
2019-06-10T17:40:02.609Z,27740.5
2019-06-10T17:41:02.877Z,27799.2
2019-06-10T17:42:01.087Z,27954.8
2019-06-10T17:43:02.382Z,28196.7
2019-06-10T17:44:02.615Z,28464.1
2019-06-10T17:45:02.486Z,28712.7
2019-06-10T17:46:03.280Z,28855.1
2019-06-10T17:47:02.211Z,28913.1
2019-06-10T17:48:03.076Z,28886.9
2019-06-10T17:49:02.592Z,28773.7
2019-06-10T17:50:02.324Z,28609.1
2019-06-10T17:51:01.234Z,28359.1
2019-06-10T17:52:02.533Z,27944.5
2019-06-10T17:53:02.559Z,27489.7
2019-06-10T17:54:02.388Z,27076.9
2019-06-10T17:55:03.207Z,26765.5
2019-06-10T17:56:03.172Z,26584.7
2019-06-10T17:57:02.333Z,26477.4
2019-06-10T17:58:02.899Z,26393.1
2019-06-10T17:59:03.134Z,26398.0
2019-06-10T18:00:07.247Z,26441.3
2019-06-10T18:01:02.234Z,26540.3
2019-06-10T18:02:02.972Z,26643.5
2019-06-10T18:03:03.648Z,26824.5
2019-06-10T18:04:02.484Z,27140.5